createdAt,value
2018-11-04T00:00:01.468Z,19.90
2018-11-04T00:02:29.768Z,19.90
2018-11-04T00:04:58.197Z,19.90
2018-11-04T00:07:26.612Z,19.90
2018-11-04T00:09:55.023Z,19.90
2018-11-04T00:12:23.445Z,19.90
2018-11-04T00:14:52.516Z,19.80
2018-11-04T00:17:20.943Z,19.90
2018-11-04T00:19:49.375Z,19.80
2018-11-04T00:22:17.802Z,19.90
2018-11-04T00:24:46.199Z,19.90
2018-11-04T00:27:14.606Z,19.90
2018-11-04T00:29:43.021Z,19.90
2018-11-04T00:32:11.453Z,19.90
2018-11-04T00:34:39.911Z,19.90
2018-11-04T00:37:09.035Z,19.90
2018-11-04T00:39:37.452Z,19.90
2018-11-04T00:42:05.958Z,19.90
2018-11-04T00:44:34.442Z,19.80
2018-11-04T00:47:02.908Z,19.90
2018-11-04T00:49:31.341Z,19.80
2018-11-04T00:51:59.743Z,19.80
2018-11-04T00:54:28.151Z,19.80
2018-11-04T00:56:56.535Z,19.80
2018-11-04T00:59:24.966Z,19.80
2018-11-04T01:01:53.379Z,19.80
2018-11-04T01:04:22.881Z,19.80
2018-11-04T01:06:51.277Z,19.80
2018-11-04T01:09:19.848Z,19.80
2018-11-04T01:11:49.371Z,19.80
2018-11-04T01:14:17.762Z,19.80
2018-11-04T01:16:46.176Z,19.80
2018-11-04T01:19:14.567Z,19.80
2018-11-04T01:21:42.967Z,19.80
2018-11-04T01:24:11.400Z,19.80
2018-11-04T01:26:39.818Z,19.70
2018-11-04T01:29:08.774Z,19.80
2018-11-04T01:31:37.275Z,19.80
2018-11-04T01:34:06.114Z,19.80
2018-11-04T01:36:34.715Z,19.80
2018-11-04T01:39:03.312Z,19.70
2018-11-04T01:41:31.729Z,19.80
2018-11-04T01:44:00.128Z,19.70
2018-11-04T01:46:28.550Z,19.70
2018-11-04T01:48:56.947Z,19.70
2018-11-04T01:51:25.410Z,19.70
2018-11-04T01:53:53.877Z,19.70
2018-11-04T01:56:22.416Z,19.80
2018-11-04T01:58:51.819Z,19.80
2018-11-04T02:01:20.352Z,19.80
2018-11-04T02:03:48.740Z,19.80
2018-11-04T02:06:17.183Z,19.70
2018-11-04T02:08:45.599Z,19.80
2018-11-04T02:11:14.112Z,19.80
2018-11-04T02:13:42.503Z,19.80
2018-11-04T02:16:10.910Z,19.80
2018-11-04T02:18:40.001Z,19.80
2018-11-04T02:21:08.443Z,19.80
2018-11-04T02:23:36.831Z,19.80
2018-11-04T02:26:05.467Z,19.70
2018-11-04T02:28:34.906Z,19.70
2018-11-04T02:31:03.309Z,19.80
2018-11-04T02:33:31.723Z,19.70
2018-11-04T02:36:00.142Z,19.70
2018-11-04T02:38:28.580Z,19.70
2018-11-04T02:40:57.583Z,19.70
2018-11-04T02:43:26.917Z,19.70
2018-11-04T02:45:55.316Z,19.70
2018-11-04T02:48:23.728Z,19.70
2018-11-04T02:50:52.123Z,19.70
2018-11-04T02:53:21.210Z,19.70
2018-11-04T02:55:50.224Z,19.70
2018-11-04T02:58:19.353Z,19.70
2018-11-04T03:00:48.540Z,19.70
2018-11-04T03:03:17.543Z,19.70
2018-11-04T03:05:46.725Z,19.70
2018-11-04T03:08:15.743Z,19.70
2018-11-04T03:10:44.132Z,19.70
2018-11-04T03:13:12.655Z,19.70
2018-11-04T03:15:41.791Z,19.70
2018-11-04T03:18:10.470Z,19.70
2018-11-04T03:20:38.952Z,19.70
2018-11-04T03:23:08.424Z,19.70
2018-11-04T03:25:37.639Z,19.70
2018-11-04T03:28:07.500Z,19.70
2018-11-04T03:30:36.736Z,19.70
2018-11-04T03:33:06.183Z,19.70
2018-11-04T03:35:34.604Z,19.70
2018-11-04T03:38:03.743Z,19.70
2018-11-04T03:40:32.873Z,19.70
2018-11-04T03:43:01.498Z,19.70
2018-11-04T03:45:29.888Z,19.70
2018-11-04T03:47:58.284Z,19.70
2018-11-04T03:50:26.642Z,19.70
2018-11-04T03:53:09.175Z,19.70
2018-11-04T03:55:39.787Z,19.70
2018-11-04T03:58:08.399Z,19.60
2018-11-04T04:00:36.884Z,19.60
2018-11-04T04:03:05.511Z,19.60
2018-11-04T04:05:34.039Z,19.60
2018-11-04T04:08:02.471Z,19.60
2018-11-04T04:10:31.451Z,19.60
2018-11-04T04:12:59.894Z,19.60
2018-11-04T04:15:28.323Z,19.60
2018-11-04T04:17:56.739Z,19.50
2018-11-04T04:20:25.123Z,19.50
2018-11-04T04:22:53.533Z,19.50
2018-11-04T04:25:21.942Z,19.50
2018-11-04T04:27:50.559Z,19.50
2018-11-04T04:30:18.947Z,19.50
2018-11-04T04:32:48.230Z,19.50
2018-11-04T04:35:16.631Z,19.50
2018-11-04T04:37:45.017Z,19.50
2018-11-04T04:40:13.456Z,19.50
2018-11-04T04:42:41.842Z,19.50
2018-11-04T04:45:10.239Z,19.50
2018-11-04T04:47:38.923Z,19.50
2018-11-04T04:50:07.516Z,19.50
2018-11-04T04:52:35.989Z,19.50
2018-11-04T04:55:04.431Z,19.50
2018-11-04T04:57:32.821Z,19.40
2018-11-04T05:00:01.213Z,19.50
2018-11-04T05:02:29.745Z,19.40
2018-11-04T05:04:58.788Z,19.40
2018-11-04T05:07:27.189Z,19.40
2018-11-04T05:09:55.579Z,19.40
2018-11-04T05:12:24.021Z,19.40
2018-11-04T05:14:52.434Z,19.40
2018-11-04T05:17:20.858Z,19.40
2018-11-04T05:19:49.247Z,19.40
2018-11-04T05:22:17.607Z,19.40
2018-11-04T05:24:46.016Z,19.40
2018-11-04T05:27:14.399Z,19.30
2018-11-04T05:29:42.816Z,19.30
2018-11-04T05:32:11.286Z,19.40
2018-11-04T05:34:39.725Z,19.30
2018-11-04T05:37:08.116Z,19.30
2018-11-04T05:39:37.348Z,19.30
2018-11-04T05:42:05.863Z,19.30
2018-11-04T05:44:34.858Z,19.30
2018-11-04T05:47:03.277Z,19.30
2018-11-04T05:49:31.662Z,19.30
2018-11-04T05:52:00.471Z,19.30
2018-11-04T05:54:28.859Z,19.30
2018-11-04T05:56:57.257Z,19.30
2018-11-04T05:59:25.610Z,19.30
2018-11-04T06:01:54.004Z,19.30
2018-11-04T06:04:22.411Z,19.30
2018-11-04T06:06:51.526Z,19.30
2018-11-04T06:09:19.919Z,19.30
2018-11-04T06:11:48.320Z,19.20
2018-11-04T06:14:16.732Z,19.20
2018-11-04T06:16:45.123Z,19.20
2018-11-04T06:19:13.538Z,19.20
2018-11-04T06:21:41.913Z,19.20
2018-11-04T06:24:10.295Z,19.20
2018-11-04T06:26:38.747Z,19.20
2018-11-04T06:29:07.134Z,19.20
2018-11-04T06:31:35.538Z,19.20
2018-11-04T06:34:04.456Z,19.20
2018-11-04T06:36:32.852Z,19.20
2018-11-04T06:39:02.455Z,19.20
2018-11-04T06:41:30.877Z,19.20
2018-11-04T06:43:59.272Z,19.20
2018-11-04T06:46:27.661Z,19.20
2018-11-04T06:48:56.039Z,19.20
2018-11-04T06:51:24.451Z,19.20
2018-11-04T06:53:52.874Z,19.20
2018-11-04T06:56:21.268Z,19.20
2018-11-04T06:58:49.662Z,19.20
2018-11-04T07:01:18.044Z,19.20
2018-11-04T07:03:58.038Z,19.10
2018-11-04T07:06:26.437Z,19.10
2018-11-04T07:08:54.890Z,19.10
2018-11-04T07:11:23.291Z,19.20
2018-11-04T07:13:51.712Z,19.10
2018-11-04T07:16:20.130Z,19.10
2018-11-04T07:18:48.572Z,19.10
2018-11-04T07:21:16.968Z,19.10
2018-11-04T07:23:45.376Z,19.10
2018-11-04T07:26:13.778Z,19.10
2018-11-04T07:28:42.148Z,19.10
2018-11-04T07:31:10.668Z,19.10
2018-11-04T07:33:39.564Z,19.10
2018-11-04T07:36:08.125Z,19.10
2018-11-04T07:38:36.508Z,19.10
2018-11-04T07:41:05.208Z,19.10
2018-11-04T07:43:33.671Z,19.10
2018-11-04T07:46:02.140Z,19.00
2018-11-04T07:48:30.537Z,19.10
2018-11-04T07:50:59.400Z,19.10
2018-11-04T07:53:27.988Z,19.10
2018-11-04T07:55:56.472Z,19.20
2018-11-04T07:58:24.897Z,19.40
2018-11-04T08:00:53.655Z,19.60
2018-11-04T08:03:21.991Z,19.70
2018-11-04T08:05:50.449Z,19.90
2018-11-04T08:08:18.897Z,20.00
2018-11-04T08:10:47.383Z,20.20
2018-11-04T08:13:15.836Z,20.20
2018-11-04T08:15:44.211Z,20.20
2018-11-04T08:18:12.592Z,20.10
2018-11-04T08:20:41.000Z,20.00
2018-11-04T08:23:09.476Z,20.00
2018-11-04T08:25:37.907Z,19.90
2018-11-04T08:28:06.837Z,19.80
2018-11-04T08:30:35.262Z,19.80
2018-11-04T08:33:03.652Z,19.80
2018-11-04T08:35:32.646Z,19.70
2018-11-04T08:38:01.724Z,19.80
2018-11-04T08:40:30.429Z,19.70
2018-11-04T08:42:58.693Z,19.70
2018-11-04T08:45:27.102Z,19.70
2018-11-04T08:47:55.501Z,19.70
2018-11-04T08:50:23.991Z,19.70
2018-11-04T08:52:52.700Z,19.70
2018-11-04T08:55:21.149Z,19.70
2018-11-04T08:57:50.030Z,19.70
2018-11-04T09:00:18.457Z,19.70
2018-11-04T09:02:46.970Z,19.70
2018-11-04T09:05:15.392Z,19.70
2018-11-04T09:07:43.817Z,19.70
2018-11-04T09:10:14.161Z,19.70
2018-11-04T09:12:43.053Z,19.80
2018-11-04T09:15:11.942Z,19.70
2018-11-04T09:17:40.380Z,19.70
2018-11-04T09:20:12.084Z,19.90
2018-11-04T09:22:41.293Z,20.00
2018-11-04T09:25:10.660Z,20.20
2018-11-04T09:27:39.223Z,20.40
2018-11-04T09:30:10.184Z,20.60
2018-11-04T09:32:38.988Z,20.70
2018-11-04T09:35:08.508Z,20.80
2018-11-04T09:37:36.936Z,20.90
2018-11-04T09:40:07.333Z,20.90
2018-11-04T09:42:35.751Z,21.00
2018-11-04T09:45:04.171Z,21.00
2018-11-04T09:47:32.567Z,21.00
2018-11-04T09:50:01.119Z,21.20
2018-11-04T09:52:30.370Z,21.30
2018-11-04T09:54:58.806Z,21.30
2018-11-04T09:57:27.288Z,21.30
2018-11-04T09:59:55.723Z,21.40
2018-11-04T10:02:24.140Z,21.50
2018-11-04T10:04:52.558Z,21.50
2018-11-04T10:07:20.968Z,21.70
2018-11-04T10:09:49.651Z,21.70
2018-11-04T10:12:18.147Z,21.80
2018-11-04T10:14:46.560Z,21.80
2018-11-04T10:17:14.971Z,21.90
2018-11-04T10:19:43.534Z,21.90
2018-11-04T10:22:12.191Z,21.90
2018-11-04T10:24:40.671Z,21.80
2018-11-04T10:27:09.213Z,21.80
2018-11-04T10:29:37.659Z,21.70
2018-11-04T10:32:06.052Z,21.70
2018-11-04T10:34:34.458Z,21.60
2018-11-04T10:37:02.968Z,21.60
2018-11-04T10:39:31.353Z,21.60
2018-11-04T10:41:59.761Z,21.50
2018-11-04T10:44:28.331Z,21.60
2018-11-04T10:46:56.749Z,21.60
2018-11-04T10:49:25.206Z,21.60
2018-11-04T10:51:53.613Z,21.60
2018-11-04T10:54:22.065Z,21.60
2018-11-04T10:56:50.603Z,21.60
2018-11-04T10:59:19.040Z,21.60
2018-11-04T11:01:47.573Z,21.60
2018-11-04T11:04:15.954Z,21.50
2018-11-04T11:06:44.376Z,21.50
2018-11-04T11:09:12.787Z,21.50
2018-11-04T11:11:41.712Z,21.50
2018-11-04T11:14:10.131Z,21.40
2018-11-04T11:16:38.559Z,21.40
2018-11-04T11:19:07.010Z,21.40
2018-11-04T11:21:35.537Z,21.40
2018-11-04T11:24:04.015Z,21.40
2018-11-04T11:26:32.439Z,21.40
2018-11-04T11:29:00.892Z,21.40
2018-11-04T11:31:29.479Z,21.40
2018-11-04T11:33:57.884Z,21.40
2018-11-04T11:36:26.723Z,21.40
2018-11-04T11:38:55.161Z,21.60
2018-11-04T11:41:23.646Z,21.70
2018-11-04T11:43:52.078Z,21.80
2018-11-04T11:46:20.512Z,21.90
2018-11-04T11:48:49.077Z,22.10
2018-11-04T11:51:17.508Z,22.10
2018-11-04T11:53:45.995Z,22.10
2018-11-04T11:56:14.450Z,22.00
2018-11-04T11:58:42.899Z,21.90
2018-11-04T12:01:11.328Z,21.80
2018-11-04T12:03:39.811Z,21.80
2018-11-04T12:06:08.210Z,21.80
2018-11-04T12:08:36.659Z,21.80
2018-11-04T12:11:05.504Z,21.80
2018-11-04T12:13:34.012Z,21.80
2018-11-04T12:16:02.443Z,21.80
2018-11-04T12:18:30.918Z,21.70
2018-11-04T12:20:59.937Z,21.80
2018-11-04T12:23:28.400Z,21.70
2018-11-04T12:25:56.753Z,21.70
2018-11-04T12:28:25.164Z,21.70
2018-11-04T12:30:53.615Z,21.70
2018-11-04T12:33:22.133Z,21.70
2018-11-04T12:35:50.997Z,21.70
2018-11-04T12:38:20.392Z,21.70
2018-11-04T12:40:48.803Z,21.70
2018-11-04T12:43:17.244Z,21.60
2018-11-04T12:45:45.726Z,21.70
2018-11-04T12:48:14.106Z,21.60
2018-11-04T12:50:42.764Z,21.60
2018-11-04T12:53:11.278Z,21.60
2018-11-04T12:55:39.688Z,21.60
2018-11-04T12:58:08.075Z,21.60
2018-11-04T13:00:36.496Z,21.60
2018-11-04T13:03:04.956Z,21.60
2018-11-04T13:05:33.707Z,21.60
2018-11-04T13:08:02.151Z,21.60
2018-11-04T13:10:30.629Z,21.60
2018-11-04T13:12:59.171Z,21.60
2018-11-04T13:15:27.691Z,21.60
2018-11-04T13:17:56.132Z,21.60
2018-11-04T13:20:24.552Z,21.50
2018-11-04T13:22:52.987Z,21.60
2018-11-04T13:25:21.463Z,21.50
2018-11-04T13:27:49.911Z,21.50
2018-11-04T13:30:18.320Z,21.40
2018-11-04T13:32:46.744Z,21.40
2018-11-04T13:35:15.172Z,21.40
2018-11-04T13:37:43.696Z,21.40
2018-11-04T13:40:12.547Z,21.40
2018-11-04T13:42:41.636Z,21.40
2018-11-04T13:45:10.727Z,21.40
2018-11-04T13:47:39.227Z,21.40
2018-11-04T13:50:10.777Z,21.40
2018-11-04T13:52:39.789Z,21.40
2018-11-04T13:55:08.272Z,21.40
2018-11-04T13:57:37.176Z,21.40
2018-11-04T14:00:07.705Z,21.40
2018-11-04T14:02:36.738Z,21.40
2018-11-04T14:05:07.597Z,21.40
2018-11-04T14:07:36.020Z,21.30
2018-11-04T14:10:05.278Z,21.20
2018-11-04T14:12:34.707Z,21.20
2018-11-04T14:15:03.135Z,21.20
2018-11-04T14:17:32.164Z,21.10
2018-11-04T14:20:01.548Z,21.10
2018-11-04T14:22:30.674Z,21.20
2018-11-04T14:25:00.259Z,21.10
2018-11-04T14:27:29.043Z,21.10
2018-11-04T14:29:57.491Z,21.10
2018-11-04T14:32:27.345Z,21.00
2018-11-04T14:34:55.788Z,21.00
2018-11-04T14:37:24.273Z,21.10
2018-11-04T14:39:53.019Z,21.10
2018-11-04T14:42:21.806Z,21.10
2018-11-04T14:44:50.221Z,21.10
2018-11-04T14:47:18.797Z,21.10
2018-11-04T14:49:47.599Z,21.10
2018-11-04T14:52:16.004Z,21.10
2018-11-04T14:54:45.192Z,21.10
2018-11-04T14:57:14.030Z,21.10
2018-11-04T14:59:42.958Z,21.10
2018-11-04T15:02:11.455Z,21.10
2018-11-04T15:04:39.937Z,21.10
2018-11-04T15:07:09.421Z,21.10
2018-11-04T15:09:38.476Z,21.10
2018-11-04T15:12:07.144Z,21.10
2018-11-04T15:14:36.179Z,21.10
2018-11-04T15:17:04.586Z,21.00
2018-11-04T15:19:32.996Z,21.00
2018-11-04T15:22:01.999Z,21.00
2018-11-04T15:24:30.969Z,21.00
2018-11-04T15:26:59.702Z,21.00
2018-11-04T15:29:28.724Z,21.00
2018-11-04T15:31:57.179Z,21.00
2018-11-04T15:34:25.779Z,21.00
2018-11-04T15:36:54.566Z,21.00
2018-11-04T15:39:23.509Z,21.00
2018-11-04T15:41:51.949Z,21.00
2018-11-04T15:44:20.443Z,20.90
2018-11-04T15:46:48.884Z,20.90
2018-11-04T15:49:17.337Z,21.00
2018-11-04T15:51:45.819Z,20.90
2018-11-04T15:54:14.363Z,20.90
2018-11-04T15:56:42.881Z,20.70
2018-11-04T15:59:11.304Z,20.50
2018-11-04T16:01:39.775Z,20.40
2018-11-04T16:04:08.415Z,20.40
2018-11-04T16:06:36.819Z,20.50
2018-11-04T16:09:07.418Z,20.50
2018-11-04T16:11:35.863Z,20.50
2018-11-04T16:14:04.264Z,20.50
2018-11-04T16:16:32.764Z,20.50
2018-11-04T16:19:01.420Z,20.50
2018-11-04T16:21:29.843Z,20.50
2018-11-04T16:23:58.231Z,20.60
2018-11-04T16:26:26.672Z,20.50
2018-11-04T16:28:55.718Z,20.60
2018-11-04T16:31:24.734Z,20.50
2018-11-04T16:33:53.187Z,20.50
2018-11-04T16:36:21.593Z,20.50
2018-11-04T16:38:50.066Z,20.50
2018-11-04T16:41:18.513Z,20.40
2018-11-04T16:43:47.066Z,20.50
2018-11-04T16:46:16.051Z,20.40
2018-11-04T16:48:44.467Z,20.40
2018-11-04T16:51:12.851Z,20.40
2018-11-04T16:53:41.370Z,20.40
2018-11-04T16:56:09.873Z,20.40
2018-11-04T16:58:38.190Z,20.40
2018-11-04T17:01:06.607Z,20.50
2018-11-04T17:03:35.024Z,20.40
2018-11-04T17:06:03.415Z,20.40
2018-11-04T17:08:31.844Z,20.40
2018-11-04T17:11:00.332Z,20.50
2018-11-04T17:13:28.774Z,20.50
2018-11-04T17:15:57.590Z,20.40
2018-11-04T17:18:26.506Z,20.40
2018-11-04T17:20:55.112Z,20.40
2018-11-04T17:23:24.023Z,20.50
2018-11-04T17:25:52.848Z,20.50
2018-11-04T17:28:21.564Z,20.50
2018-11-04T17:30:51.272Z,20.60
2018-11-04T17:33:19.986Z,20.60
2018-11-04T17:35:48.733Z,20.60
2018-11-04T17:38:17.766Z,20.60
2018-11-04T17:40:46.246Z,20.70
2018-11-04T17:43:14.719Z,20.70
2018-11-04T17:45:43.125Z,20.70
2018-11-04T17:48:11.855Z,20.70
2018-11-04T17:50:40.300Z,20.80
2018-11-04T17:53:08.691Z,20.90
2018-11-04T17:55:37.224Z,20.90
2018-11-04T17:58:05.641Z,20.90
2018-11-04T18:00:34.056Z,20.90
2018-11-04T18:03:02.625Z,20.90
2018-11-04T18:05:31.038Z,20.90
2018-11-04T18:07:59.434Z,20.80
2018-11-04T18:10:27.903Z,20.80
2018-11-04T18:12:56.409Z,20.80
2018-11-04T18:15:26.612Z,20.80
2018-11-04T18:17:56.111Z,20.80
2018-11-04T18:20:24.828Z,20.80
2018-11-04T18:22:53.284Z,20.80
2018-11-04T18:25:21.724Z,20.70
2018-11-04T18:27:50.186Z,20.70
2018-11-04T18:30:18.597Z,20.70
2018-11-04T18:32:47.253Z,20.70
2018-11-04T18:35:15.824Z,20.60
2018-11-04T18:37:44.235Z,20.60
2018-11-04T18:40:14.325Z,20.70
2018-11-04T18:42:43.435Z,20.70
2018-11-04T18:45:13.149Z,20.70
2018-11-04T18:47:41.579Z,20.60
2018-11-04T18:50:12.180Z,20.60
2018-11-04T18:52:40.912Z,20.60
2018-11-04T18:55:10.542Z,20.60
2018-11-04T18:57:39.226Z,20.60
2018-11-04T19:00:09.687Z,20.60
2018-11-04T19:02:38.095Z,20.60
2018-11-04T19:05:07.085Z,20.60
2018-11-04T19:07:35.869Z,20.60
2018-11-04T19:10:04.511Z,20.60
2018-11-04T19:12:32.947Z,20.60
2018-11-04T19:15:01.435Z,20.60
2018-11-04T19:17:29.904Z,20.60
2018-11-04T19:19:58.343Z,20.60
2018-11-04T19:22:27.021Z,20.60
2018-11-04T19:24:55.462Z,20.60
2018-11-04T19:27:23.971Z,20.60
2018-11-04T19:29:52.439Z,20.50
2018-11-04T19:32:20.916Z,20.60
2018-11-04T19:34:49.347Z,20.50
2018-11-04T19:37:17.795Z,20.60
2018-11-04T19:39:46.208Z,20.60
2018-11-04T19:42:15.531Z,20.60
2018-11-04T19:44:43.930Z,20.60
2018-11-04T19:47:12.360Z,20.60
2018-11-04T19:49:40.785Z,20.60
2018-11-04T19:52:09.218Z,20.60
2018-11-04T19:54:37.653Z,20.60
2018-11-04T19:57:06.091Z,20.50
2018-11-04T19:59:34.581Z,20.60
2018-11-04T20:02:03.752Z,20.50
2018-11-04T20:04:32.352Z,20.50
2018-11-04T20:07:01.022Z,20.50
2018-11-04T20:09:30.375Z,20.50
2018-11-04T20:11:59.035Z,20.50
2018-11-04T20:14:27.493Z,20.50
2018-11-04T20:16:57.762Z,20.50
2018-11-04T20:19:31.757Z,20.50
2018-11-04T20:22:00.043Z,20.50
2018-11-04T20:24:37.402Z,20.50
2018-11-04T20:27:05.937Z,20.50
2018-11-04T20:29:34.454Z,20.40
2018-11-04T20:32:08.111Z,20.50
2018-11-04T20:34:36.530Z,20.40
2018-11-04T20:37:05.355Z,20.40
2018-11-04T20:39:39.232Z,20.40
2018-11-04T20:42:07.664Z,20.40
2018-11-04T20:44:42.157Z,20.40
2018-11-04T20:47:10.564Z,20.40
2018-11-04T20:49:44.401Z,20.50
2018-11-04T20:52:12.868Z,20.40
2018-11-04T20:54:41.360Z,20.40
2018-11-04T20:57:44.505Z,20.50
2018-11-04T21:00:14.008Z,20.50
2018-11-04T21:02:43.154Z,20.50
2018-11-04T21:05:11.532Z,20.40
2018-11-04T21:07:40.112Z,20.40
2018-11-04T21:10:09.997Z,20.40
2018-11-04T21:12:39.139Z,20.40
2018-11-04T21:15:08.007Z,20.40
2018-11-04T21:17:36.748Z,20.40
2018-11-04T21:20:05.697Z,20.40
2018-11-04T21:22:34.412Z,20.50
2018-11-04T21:25:03.314Z,20.40
2018-11-04T21:27:31.795Z,20.40
2018-11-04T21:30:00.620Z,20.40
2018-11-04T21:32:29.032Z,20.50
2018-11-04T21:34:57.711Z,20.50
2018-11-04T21:37:26.662Z,20.40
2018-11-04T21:39:55.348Z,20.40
2018-11-04T21:42:24.560Z,20.40
2018-11-04T21:44:53.120Z,20.40
2018-11-04T21:47:21.618Z,20.40
2018-11-04T21:49:50.309Z,20.40
2018-11-04T21:52:18.952Z,20.40
2018-11-04T21:54:47.566Z,20.40
2018-11-04T21:57:16.267Z,20.40
2018-11-04T21:59:44.659Z,20.40
2018-11-04T22:02:13.129Z,20.40
2018-11-04T22:04:41.636Z,20.40
2018-11-04T22:07:10.324Z,20.40
2018-11-04T22:09:38.746Z,20.40
2018-11-04T22:12:07.246Z,20.50
2018-11-04T22:14:35.760Z,20.40
2018-11-04T22:17:04.297Z,20.50
2018-11-04T22:19:32.803Z,20.40
2018-11-04T22:22:01.214Z,20.40
2018-11-04T22:24:29.613Z,20.40
2018-11-04T22:26:58.042Z,20.40
2018-11-04T22:29:26.509Z,20.40
2018-11-04T22:31:54.888Z,20.30
2018-11-04T22:34:23.297Z,20.30
2018-11-04T22:36:51.861Z,20.30
2018-11-04T22:39:20.345Z,20.30
2018-11-04T22:41:48.723Z,20.30
2018-11-04T22:44:17.131Z,20.30
2018-11-04T22:46:45.525Z,20.30
2018-11-04T22:49:14.250Z,20.30
2018-11-04T22:51:42.647Z,20.30
2018-11-04T22:54:11.415Z,20.30
2018-11-04T22:56:39.938Z,20.30
2018-11-04T22:59:08.399Z,20.30
2018-11-04T23:01:36.977Z,20.30
2018-11-04T23:04:05.402Z,20.20
2018-11-04T23:06:33.727Z,20.20
2018-11-04T23:09:02.115Z,20.20
2018-11-04T23:11:30.511Z,20.20
2018-11-04T23:13:58.908Z,20.20
2018-11-04T23:16:27.314Z,20.20
2018-11-04T23:18:55.711Z,20.20
2018-11-04T23:21:24.125Z,20.20
2018-11-04T23:23:52.548Z,20.20
2018-11-04T23:26:20.946Z,20.20
2018-11-04T23:28:49.352Z,20.20
2018-11-04T23:31:17.806Z,20.20
2018-11-04T23:33:46.333Z,20.20
2018-11-04T23:36:14.741Z,20.20
2018-11-04T23:38:43.140Z,20.20
2018-11-04T23:41:11.588Z,20.20
2018-11-04T23:43:39.982Z,20.20
2018-11-04T23:46:08.444Z,20.20
2018-11-04T23:48:36.864Z,20.20
2018-11-04T23:51:05.787Z,20.20
2018-11-04T23:53:35.003Z,20.10
2018-11-04T23:56:03.490Z,20.20
2018-11-04T23:58:31.889Z,20.20
